Time;durP1;ratioP1;P1;durP2;ratioP2;P2;SDS_P1;SDS_P2;PMS_P1;PMS_P2;Temp;Humidity;BMP_temperature;BMP_pressure;BME280_temperature;BME280_humidity;BME280_pressure;Samples;Min_cycle;Max_cycle;Signal;HPM_P1;HPM_P2
2021/12/26 00:00:31;;;;;;;6.53;2.90;;;-5.20;99.90;;;;;;5017072;28;20577;-81
2021/12/26 00:02:58;;;;;;;6.53;2.80;;;-5.20;99.90;;;;;;5036081;28;20044;-82
2021/12/26 00:05:25;;;;;;;7.70;3.13;;;-5.30;99.90;;;;;;5013389;28;20126;-82
2021/12/26 00:07:51;;;;;;;9.13;3.20;;;-5.20;99.90;;;;;;5032741;28;20130;-81
2021/12/26 00:10:20;;;;;;;7.32;2.95;;;-5.30;99.90;;;;;;5015159;28;20107;-81
2021/12/26 00:12:47;;;;;;;6.45;2.95;;;-5.20;99.90;;;;;;5031795;28;20434;-81
2021/12/26 00:15:14;;;;;;;5.85;2.45;;;-5.30;99.90;;;;;;4987836;28;20043;-81
2021/12/26 00:17:40;;;;;;;7.85;2.92;;;-5.30;99.90;;;;;;5014517;28;20660;-80
2021/12/26 00:20:07;;;;;;;10.45;3.38;;;-5.40;99.90;;;;;;5029045;28;20043;-81
2021/12/26 00:22:34;;;;;;;8.20;3.75;;;-5.20;99.90;;;;;;5032298;28;20055;-81
2021/12/26 00:25:00;;;;;;;7.50;2.88;;;-5.30;99.90;;;;;;4981194;28;20043;-81
2021/12/26 00:27:26;;;;;;;7.15;3.20;;;-5.30;99.90;;;;;;5012078;28;20095;-81
2021/12/26 00:29:52;;;;;;;6.38;3.10;;;-5.20;99.90;;;;;;5032215;28;20039;-81
2021/12/26 00:32:18;;;;;;;7.55;2.80;;;-5.20;99.90;;;;;;5034113;28;20044;-81
2021/12/26 00:34:44;;;;;;;5.93;2.95;;;-5.20;99.90;;;;;;5033551;28;20842;-80
2021/12/26 00:37:11;;;;;;;7.97;2.83;;;-5.20;99.90;;;;;;5016394;28;20378;-81
2021/12/26 00:39:37;;;;;;;7.07;2.97;;;-5.30;99.90;;;;;;5036279;28;20051;-81
2021/12/26 00:42:04;;;;;;;7.75;2.95;;;-5.30;99.90;;;;;;4993115;28;20802;-81
2021/12/26 00:44:32;;;;;;;9.55;2.97;;;-5.20;99.90;;;;;;5015324;28;20048;-81
2021/12/26 00:46:58;;;;;;;6.68;2.40;;;-5.20;99.90;;;;;;5035771;28;20134;-81
2021/12/26 00:49:23;;;;;;;6.88;2.75;;;-5.40;99.90;;;;;;5033863;28;20596;-81
2021/12/26 00:51:50;;;;;;;9.15;3.03;;;-5.30;99.90;;;;;;5034780;28;20544;-80
2021/12/26 00:54:17;;;;;;;6.18;3.03;;;-5.40;99.90;;;;;;5032716;28;20048;-81
2021/12/26 00:56:43;;;;;;;7.85;3.30;;;-5.40;99.90;;;;;;5033271;28;20582;-80
2021/12/26 00:59:09;;;;;;;7.13;3.00;;;-5.30;99.90;;;;;;5035164;28;20062;-80
2021/12/26 01:01:35;;;;;;;10.82;3.15;;;-5.40;99.90;;;;;;5033683;28;20130;-81
2021/12/26 01:04:01;;;;;;;9.40;2.88;;;-5.40;99.90;;;;;;5034313;28;20035;-81
2021/12/26 01:06:27;;;;;;;6.93;2.90;;;-5.40;99.90;;;;;;5034061;28;20092;-80
2021/12/26 01:08:54;;;;;;;7.57;3.38;;;-5.30;99.90;;;;;;5034107;28;20130;-80
2021/12/26 01:11:49;;;;;;;5.85;3.15;;;-5.30;99.90;;;;;;5034640;28;20146;-80
2021/12/26 01:14:13;;;;;;;7.05;3.05;;;-5.20;99.90;;;;;;5031533;28;20052;-80
2021/12/26 01:16:40;;;;;;;6.90;2.65;;;-5.30;99.90;;;;;;5013408;28;20083;-80
2021/12/26 01:19:15;;;;;;;7.75;3.15;;;-5.20;99.90;;;;;;5028032;28;20374;-80
2021/12/26 01:21:43;;;;;;;5.95;2.63;;;-5.20;99.90;;;;;;5033157;28;20560;-80
2021/12/26 01:24:15;;;;;;;8.32;2.92;;;-5.20;99.90;;;;;;5030679;28;20212;-80
2021/12/26 01:26:41;;;;;;;7.38;3.10;;;-5.20;99.90;;;;;;5010154;28;20047;-80
2021/12/26 01:29:07;;;;;;;6.53;2.88;;;-5.10;99.90;;;;;;5015670;28;20044;-79
2021/12/26 01:31:33;;;;;;;7.45;2.85;;;-5.10;99.90;;;;;;5032675;28;20473;-80
2021/12/26 01:34:03;;;;;;;6.53;2.60;;;-5.20;99.90;;;;;;5034160;28;20945;-80
2021/12/26 01:36:33;;;;;;;8.55;3.13;;;-5.20;99.90;;;;;;5013008;28;20047;-80
2021/12/26 01:39:01;;;;;;;6.68;2.67;;;-5.20;99.90;;;;;;5033338;28;20043;-79
2021/12/26 01:41:30;;;;;;;6.75;2.60;;;-5.20;99.90;;;;;;5033055;28;20800;-80
2021/12/26 01:43:59;;;;;;;9.40;3.33;;;-5.20;99.90;;;;;;5034412;28;20638;-80
2021/12/26 01:46:26;;;;;;;5.88;2.75;;;-5.10;99.90;;;;;;5028618;28;20508;-80
2021/12/26 01:49:17;;;;;;;6.97;2.97;;;-5.20;99.90;;;;;;5034404;28;20926;-80
2021/12/26 01:51:45;;;;;;;7.55;2.80;;;-5.20;99.90;;;;;;5014404;28;20065;-80
2021/12/26 01:54:16;;;;;;;9.65;3.42;;;-5.20;99.90;;;;;;5031939;28;20035;-80
2021/12/26 01:56:43;;;;;;;6.55;3.08;;;-5.30;99.90;;;;;;5033384;28;20527;-79
2021/12/26 01:59:11;;;;;;;7.30;2.75;;;-5.30;99.90;;;;;;5007473;28;20130;-79
2021/12/26 02:01:37;;;;;;;7.93;3.13;;;-5.30;99.90;;;;;;5033673;28;20518;-79
2021/12/26 02:04:03;;;;;;;6.95;2.80;;;-5.30;99.90;;;;;;5030483;28;20203;-80
2021/12/26 02:06:30;;;;;;;6.70;2.70;;;-5.40;99.90;;;;;;5031938;28;20046;-80
2021/12/26 02:08:56;;;;;;;8.55;2.97;;;-5.40;99.90;;;;;;5031309;28;20071;-80
2021/12/26 02:11:22;;;;;;;5.95;2.80;;;-5.40;99.90;;;;;;5015548;28;20047;-79
2021/12/26 02:13:48;;;;;;;6.30;2.95;;;-5.30;99.90;;;;;;5011014;28;20055;-80
2021/12/26 02:16:14;;;;;;;6.60;2.30;;;-5.30;99.90;;;;;;5032325;28;20086;-79
2021/12/26 02:18:41;;;;;;;6.00;2.90;;;-5.40;99.90;;;;;;5019062;28;20501;-79
2021/12/26 02:21:59;;;;;;;5.90;2.97;;;-5.30;99.90;;;;;;5015804;28;20607;-80
2021/12/26 02:24:24;;;;;;;8.55;3.20;;;-5.30;99.90;;;;;;5027523;28;20047;-80
2021/12/26 02:29:37;;;;;;;6.13;2.55;;;-5.40;99.90;;;;;;5019763;28;20063;-79
2021/12/26 02:32:04;;;;;;;7.57;3.25;;;-5.50;99.90;;;;;;5034580;28;20047;-80
2021/12/26 02:34:29;;;;;;;6.95;3.22;;;-5.50;99.90;;;;;;5015639;28;20124;-79
2021/12/26 02:36:55;;;;;;;7.18;2.70;;;-5.40;99.90;;;;;;5035409;28;20443;-79
2021/12/26 02:39:21;;;;;;;7.78;3.10;;;-5.40;99.90;;;;;;5036087;28;20071;-79
2021/12/26 02:41:47;;;;;;;9.15;3.20;;;-5.40;99.90;;;;;;5034710;28;20039;-79
2021/12/26 02:44:14;;;;;;;7.97;3.22;;;-5.40;99.90;;;;;;5035703;28;20043;-79
2021/12/26 02:46:43;;;;;;;8.43;3.60;;;-5.50;99.90;;;;;;5017906;28;20442;-79
2021/12/26 02:49:09;;;;;;;7.43;3.22;;;-5.40;99.90;;;;;;5029082;28;20141;-79
2021/12/26 02:51:35;;;;;;;6.22;2.83;;;-5.30;99.90;;;;;;5035266;28;20339;-79
2021/12/26 02:54:01;;;;;;;7.55;3.80;;;-5.20;99.90;;;;;;5011998;28;20701;-80
2021/12/26 02:56:29;;;;;;;9.65;3.33;;;-5.30;99.90;;;;;;5015823;28;20447;-80
2021/12/26 02:58:56;;;;;;;7.63;3.55;;;-5.50;99.90;;;;;;5036015;28;20126;-79
2021/12/26 03:01:24;;;;;;;7.45;2.75;;;-5.30;99.90;;;;;;5036113;28;20114;-79
2021/12/26 03:03:50;;;;;;;7.45;3.00;;;-5.40;99.90;;;;;;5033697;28;20079;-79
2021/12/26 03:06:38;;;;;;;8.27;3.30;;;-5.40;99.90;;;;;;5014841;28;20490;-79
2021/12/26 03:09:06;;;;;;;6.45;3.47;;;-5.50;99.90;;;;;;5017560;28;20866;-79
2021/12/26 03:11:32;;;;;;;5.85;3.08;;;-5.40;99.90;;;;;;5036879;28;20268;-79
2021/12/26 03:13:58;;;;;;;9.05;3.22;;;-5.40;99.90;;;;;;5032320;28;20044;-79
2021/12/26 03:16:24;;;;;;;6.93;3.25;;;-5.40;99.90;;;;;;5032172;28;20435;-79
2021/12/26 03:18:56;;;;;;;8.48;3.30;;;-5.40;99.90;;;;;;5015851;28;20132;-79
2021/12/26 03:21:22;;;;;;;7.63;3.30;;;-5.40;99.90;;;;;;5034028;28;20390;-79
2021/12/26 03:23:48;;;;;;;7.63;2.78;;;-5.40;99.90;;;;;;5001812;28;20093;-79
2021/12/26 03:26:13;;;;;;;6.72;3.47;;;-5.40;99.90;;;;;;5014933;28;20055;-79
2021/12/26 03:28:39;;;;;;;8.00;3.58;;;-5.60;99.90;;;;;;5014202;28;20097;-79
2021/12/26 03:31:05;;;;;;;7.28;3.63;;;-5.70;99.90;;;;;;5034520;28;20462;-79
2021/12/26 03:33:32;;;;;;;7.47;3.22;;;-5.60;99.90;;;;;;5013375;28;20969;-79
2021/12/26 03:35:58;;;;;;;9.20;3.85;;;-5.50;99.90;;;;;;5034100;28;20055;-78
2021/12/26 03:38:25;;;;;;;7.68;3.47;;;-5.40;99.90;;;;;;5012515;28;20275;-78
2021/12/26 03:40:52;;;;;;;6.72;3.40;;;-5.40;99.90;;;;;;5032137;28;20539;-78
2021/12/26 03:43:19;;;;;;;8.50;3.50;;;-5.40;99.90;;;;;;5014227;28;20051;-78
2021/12/26 03:45:50;;;;;;;7.35;3.33;;;-5.40;99.90;;;;;;5013083;28;20047;-78
2021/12/26 03:48:17;;;;;;;8.27;3.72;;;-5.50;99.90;;;;;;5032345;28;20039;-78
2021/12/26 03:50:44;;;;;;;8.55;3.40;;;-5.50;99.90;;;;;;5029010;28;20044;-79
2021/12/26 03:53:11;;;;;;;9.00;3.50;;;-5.40;99.90;;;;;;5032720;28;20668;-79
2021/12/26 03:55:37;;;;;;;8.07;3.65;;;-5.40;99.90;;;;;;5009838;28;20082;-78
2021/12/26 03:58:04;;;;;;;7.72;4.00;;;-5.40;99.90;;;;;;5034548;28;20130;-78
2021/12/26 04:00:30;;;;;;;9.90;4.35;;;-5.40;99.90;;;;;;5030139;28;20378;-78
2021/12/26 04:02:56;;;;;;;8.38;3.85;;;-5.40;99.90;;;;;;5033072;28;20249;-79
2021/12/26 04:05:22;;;;;;;10.75;3.85;;;-5.50;99.90;;;;;;5013279;28;20507;-79
2021/12/26 04:07:49;;;;;;;8.60;3.75;;;-5.50;99.90;;;;;;5011479;28;20960;-78
2021/12/26 04:10:16;;;;;;;7.25;3.72;;;-5.50;99.90;;;;;;5030669;28;20044;-78
2021/12/26 04:12:46;;;;;;;7.35;3.25;;;-5.50;99.90;;;;;;5028287;28;20050;-78
2021/12/26 04:15:18;;;;;;;7.68;3.60;;;-5.50;99.90;;;;;;5033820;28;20406;-79
2021/12/26 04:17:44;;;;;;;9.60;4.07;;;-5.40;99.90;;;;;;5030451;28;20340;-79
2021/12/26 04:20:10;;;;;;;8.45;3.90;;;-5.40;99.90;;;;;;5030123;28;20129;-79
2021/12/26 04:22:36;;;;;;;9.52;3.60;;;-5.40;99.90;;;;;;5034643;28;20056;-79
2021/12/26 04:25:03;;;;;;;6.93;3.60;;;-5.50;99.90;;;;;;5029933;28;20387;-79
2021/12/26 04:27:29;;;;;;;8.27;3.97;;;-5.50;99.90;;;;;;5033402;28;20207;-79
2021/12/26 04:29:55;;;;;;;10.57;4.15;;;-5.50;99.90;;;;;;5028586;28;20767;-78
2021/12/26 04:32:21;;;;;;;10.20;3.70;;;-5.50;99.90;;;;;;5027211;28;20462;-78
2021/12/26 04:34:48;;;;;;;9.95;3.65;;;-5.50;99.90;;;;;;5012132;28;20073;-79
2021/12/26 04:37:14;;;;;;;10.52;4.53;;;-5.50;99.90;;;;;;5019337;28;20131;-79
2021/12/26 04:39:40;;;;;;;8.82;3.67;;;-5.70;99.90;;;;;;5030692;28;20408;-79
2021/12/26 04:42:06;;;;;;;8.38;3.92;;;-5.60;99.90;;;;;;5030753;28;20506;-79
2021/12/26 04:44:32;;;;;;;8.00;3.95;;;-5.60;99.90;;;;;;5031681;28;20413;-78
2021/12/26 04:46:59;;;;;;;8.05;3.85;;;-5.60;99.90;;;;;;5032098;28;20750;-78
2021/12/26 04:49:28;;;;;;;7.45;3.70;;;-5.50;99.90;;;;;;5032967;28;20054;-79
2021/12/26 04:51:54;;;;;;;9.27;3.95;;;-5.50;99.90;;;;;;5032062;28;20047;-79
2021/12/26 04:54:19;;;;;;;9.25;4.13;;;-5.60;99.90;;;;;;5012223;28;20093;-79
2021/12/26 04:56:45;;;;;;;8.90;4.22;;;-5.60;99.90;;;;;;4979238;28;20031;-79
2021/12/26 04:59:11;;;;;;;9.70;4.05;;;-5.50;99.90;;;;;;5033147;28;20106;-79
2021/12/26 05:01:37;;;;;;;8.90;3.53;;;-5.60;99.90;;;;;;5030038;28;20453;-79
2021/12/26 05:04:04;;;;;;;7.70;3.72;;;-5.60;99.90;;;;;;5031005;28;20046;-79
2021/12/26 05:06:29;;;;;;;8.38;3.83;;;-5.60;99.90;;;;;;5010483;28;20423;-79
2021/12/26 05:08:56;;;;;;;12.60;3.78;;;-5.60;99.90;;;;;;5030783;28;20043;-79
2021/12/26 05:11:21;;;;;;;7.25;3.88;;;-5.60;99.90;;;;;;5027985;28;20058;-79
2021/12/26 05:13:47;;;;;;;9.50;4.05;;;-5.50;99.90;;;;;;5026966;28;20562;-79
2021/12/26 05:16:13;;;;;;;8.15;4.03;;;-5.50;99.90;;;;;;5029874;28;20071;-79
2021/12/26 05:18:39;;;;;;;7.90;3.88;;;-5.50;99.90;;;;;;5031185;28;20074;-79
2021/12/26 05:21:05;;;;;;;9.23;3.13;;;-5.60;99.90;;;;;;5029736;28;20429;-79
2021/12/26 05:23:32;;;;;;;8.48;3.88;;;-5.60;99.90;;;;;;5029140;28;20070;-79
2021/12/26 05:25:57;;;;;;;7.47;3.42;;;-5.60;99.90;;;;;;5028716;28;20911;-78
2021/12/26 05:28:23;;;;;;;9.20;3.85;;;-5.50;99.90;;;;;;5011624;28;20112;-79
2021/12/26 05:30:49;;;;;;;10.48;3.90;;;-5.50;99.90;;;;;;5032003;28;20832;-79
2021/12/26 05:33:15;;;;;;;7.72;3.80;;;-5.40;99.90;;;;;;5018387;28;20070;-79
2021/12/26 05:35:41;;;;;;;8.60;3.75;;;-5.40;99.90;;;;;;5033113;28;20047;-79
2021/12/26 05:38:08;;;;;;;7.72;4.10;;;-5.40;99.90;;;;;;4996226;28;20580;-79
2021/12/26 05:40:34;;;;;;;9.88;4.28;;;-5.50;99.90;;;;;;5029758;28;20441;-79
2021/12/26 05:43:00;;;;;;;9.73;3.65;;;-5.40;99.90;;;;;;5027346;28;20578;-79
2021/12/26 05:45:25;;;;;;;8.75;4.10;;;-5.50;99.90;;;;;;5010160;28;20047;-79
2021/12/26 05:47:51;;;;;;;6.78;3.50;;;-5.50;99.90;;;;;;5035121;28;20039;-78
2021/12/26 05:50:20;;;;;;;8.65;4.13;;;-5.40;99.90;;;;;;5031563;28;21931;-79
2021/12/26 05:52:47;;;;;;;9.60;3.95;;;-5.40;99.90;;;;;;5030261;28;20434;-78
2021/12/26 05:55:14;;;;;;;8.88;3.78;;;-5.30;99.90;;;;;;5030083;28;20119;-79
2021/12/26 05:57:40;;;;;;;7.80;3.60;;;-5.30;99.90;;;;;;5033073;28;20115;-79
2021/12/26 06:00:10;;;;;;;7.35;3.67;;;-5.40;99.90;;;;;;5013735;28;20082;-79
2021/12/26 06:02:36;;;;;;;9.10;4.03;;;-5.40;99.90;;;;;;5031856;28;20409;-79
2021/12/26 06:05:02;;;;;;;8.77;3.83;;;-5.30;99.90;;;;;;5030730;28;20403;-79
2021/12/26 06:07:28;;;;;;;7.22;3.70;;;-5.30;99.90;;;;;;5027360;28;20166;-79
2021/12/26 06:09:53;;;;;;;7.10;3.40;;;-5.40;99.90;;;;;;5033611;28;20054;-79
2021/12/26 06:12:19;;;;;;;9.18;3.90;;;-5.30;99.90;;;;;;5031556;28;20159;-79
2021/12/26 06:14:45;;;;;;;9.30;4.18;;;-5.20;99.90;;;;;;5014526;28;20059;-79
2021/12/26 06:17:11;;;;;;;9.82;4.38;;;-5.20;99.90;;;;;;5031586;28;20121;-79
2021/12/26 06:19:37;;;;;;;8.07;3.78;;;-5.30;99.90;;;;;;5031123;28;20103;-79
2021/12/26 06:22:03;;;;;;;7.93;4.13;;;-5.20;99.90;;;;;;5013178;28;20417;-79
2021/12/26 06:24:32;;;;;;;8.73;3.88;;;-5.20;99.90;;;;;;5029905;28;20372;-79
2021/12/26 06:26:58;;;;;;;8.63;4.18;;;-5.30;99.90;;;;;;5029570;28;20426;-79
2021/12/26 06:29:24;;;;;;;7.85;3.88;;;-5.20;99.90;;;;;;5012123;28;20787;-79
2021/12/26 06:31:50;;;;;;;9.90;4.38;;;-5.30;99.90;;;;;;5031082;28;20618;-79
2021/12/26 06:34:16;;;;;;;8.85;4.20;;;-5.20;99.90;;;;;;5027112;28;20058;-79
2021/12/26 06:36:42;;;;;;;9.48;4.32;;;-5.30;99.90;;;;;;4999507;28;20067;-79
2021/12/26 06:39:08;;;;;;;8.65;4.20;;;-5.30;99.90;;;;;;5030203;28;20417;-79
2021/12/26 06:41:33;;;;;;;10.82;4.03;;;-5.30;99.90;;;;;;5029337;28;20445;-78
2021/12/26 06:44:00;;;;;;;9.65;4.57;;;-5.30;99.90;;;;;;5010041;28;20320;-79
2021/12/26 06:46:26;;;;;;;9.35;4.38;;;-5.20;99.90;;;;;;5017440;28;20497;-79
2021/12/26 06:48:52;;;;;;;9.82;3.92;;;-5.30;99.90;;;;;;5031438;28;20051;-79
2021/12/26 06:51:19;;;;;;;8.88;4.55;;;-5.20;99.90;;;;;;5011629;28;20139;-78
2021/12/26 06:53:45;;;;;;;8.43;4.30;;;-5.20;99.90;;;;;;5009349;28;20467;-78
2021/12/26 06:56:11;;;;;;;9.70;4.50;;;-5.20;99.90;;;;;;5009841;28;20053;-78
2021/12/26 06:58:37;;;;;;;9.43;4.40;;;-5.20;99.90;;;;;;5014060;28;20055;-78
2021/12/26 07:01:03;;;;;;;9.98;4.65;;;-5.30;99.90;;;;;;5014023;28;20047;-78
2021/12/26 07:03:29;;;;;;;10.00;4.38;;;-5.30;99.90;;;;;;5029787;28;20054;-78
2021/12/26 07:05:55;;;;;;;9.65;4.45;;;-5.30;99.90;;;;;;5034673;28;20044;-79
2021/12/26 07:08:21;;;;;;;9.45;4.70;;;-5.30;99.90;;;;;;5035742;28;20066;-78
2021/12/26 07:10:47;;;;;;;7.70;4.20;;;-5.30;99.90;;;;;;5032444;28;20483;-79
2021/12/26 07:13:13;;;;;;;10.10;4.55;;;-5.40;99.90;;;;;;5014497;28;20822;-78
2021/12/26 07:15:39;;;;;;;8.63;5.15;;;-5.30;99.90;;;;;;5010000;28;20530;-78
2021/12/26 07:18:06;;;;;;;9.73;4.70;;;-5.40;99.90;;;;;;5021014;28;20784;-78
2021/12/26 07:20:32;;;;;;;9.27;4.68;;;-5.40;99.90;;;;;;5010282;28;20052;-78
2021/12/26 07:22:57;;;;;;;8.80;4.15;;;-5.40;99.90;;;;;;5013714;28;20059;-79
2021/12/26 07:25:23;;;;;;;8.98;4.55;;;-5.50;99.90;;;;;;5013322;28;20551;-77
2021/12/26 07:27:49;;;;;;;10.98;5.07;;;-5.50;99.90;;;;;;5031666;28;20488;-79
2021/12/26 07:30:15;;;;;;;8.95;4.05;;;-5.50;99.90;;;;;;4992078;28;20058;-76
2021/12/26 07:32:41;;;;;;;9.68;4.57;;;-5.50;99.90;;;;;;5033593;28;20508;-77
2021/12/26 07:35:07;;;;;;;8.55;4.75;;;-5.50;99.90;;;;;;5030752;28;20921;-78
2021/12/26 07:37:33;;;;;;;8.77;4.82;;;-5.40;99.90;;;;;;5035065;28;20060;-78
2021/12/26 07:39:59;;;;;;;10.40;4.97;;;-5.50;99.90;;;;;;5031014;28;20198;-78
2021/12/26 07:42:25;;;;;;;10.32;5.28;;;-5.60;99.90;;;;;;5036792;28;20353;-78
2021/12/26 07:44:51;;;;;;;10.73;4.57;;;-5.50;99.90;;;;;;5031846;28;20433;-79
2021/12/26 07:47:17;;;;;;;8.95;4.20;;;-5.50;99.90;;;;;;5014173;28;20039;-75
2021/12/26 07:49:43;;;;;;;10.68;4.85;;;-5.50;99.90;;;;;;5029109;28;20079;-77
2021/12/26 07:52:14;;;;;;;10.50;4.80;;;-5.40;99.90;;;;;;5012965;28;20507;-78
2021/12/26 07:54:40;;;;;;;9.68;4.78;;;-5.40;99.90;;;;;;5031176;28;20608;-78
2021/12/26 07:57:07;;;;;;;11.30;5.53;;;-5.50;99.90;;;;;;5012372;28;20587;-78
2021/12/26 07:59:33;;;;;;;9.65;5.22;;;-5.50;99.90;;;;;;5017292;28;20062;-78
2021/12/26 08:02:00;;;;;;;10.02;4.82;;;-5.40;99.90;;;;;;4991885;28;20047;-78
2021/12/26 08:04:26;;;;;;;8.25;5.00;;;-5.40;99.90;;;;;;5033608;28;20074;-78
2021/12/26 08:06:57;;;;;;;12.10;6.15;;;-5.30;99.90;;;;;;5033125;28;20478;-77
2021/12/26 08:09:22;;;;;;;9.73;5.05;;;-5.30;99.90;;;;;;5019473;28;20075;-78
2021/12/26 08:11:49;;;;;;;10.52;5.65;;;-5.20;99.90;;;;;;5035691;28;20620;-78
2021/12/26 08:14:15;;;;;;;10.02;4.80;;;-5.20;99.90;;;;;;5013652;28;20756;-79
2021/12/26 08:16:41;;;;;;;10.52;4.80;;;-5.10;99.90;;;;;;5013540;28;20043;-79
2021/12/26 08:19:07;;;;;;;9.15;4.93;;;-5.10;99.90;;;;;;5030633;28;20584;-78
2021/12/26 08:21:34;;;;;;;9.60;4.97;;;-5.00;99.90;;;;;;5008972;28;20052;-78
2021/12/26 08:24:02;;;;;;;9.70;4.97;;;-5.00;99.90;;;;;;5004078;28;20071;-77
2021/12/26 08:26:28;;;;;;;11.75;5.40;;;-4.90;99.90;;;;;;5009982;28;20056;-76
2021/12/26 08:28:53;;;;;;;9.57;5.40;;;-4.90;99.90;;;;;;5035953;28;20058;-76
2021/12/26 08:31:21;;;;;;;11.07;5.13;;;-4.80;99.90;;;;;;5014179;28;20465;-78
2021/12/26 08:33:47;;;;;;;9.77;5.60;;;-4.80;99.90;;;;;;5031480;28;20075;-77
2021/12/26 08:36:14;;;;;;;9.65;4.82;;;-4.70;99.90;;;;;;5031550;28;20369;-79
2021/12/26 08:38:40;;;;;;;12.30;5.53;;;-4.70;99.90;;;;;;5010726;28;20547;-79
2021/12/26 08:41:06;;;;;;;11.85;5.38;;;-4.60;99.90;;;;;;5030742;28;20142;-78
2021/12/26 08:43:32;;;;;;;10.35;5.15;;;-4.50;99.90;;;;;;5033064;28;20390;-79
2021/12/26 08:45:58;;;;;;;9.30;5.43;;;-4.50;99.90;;;;;;5032410;28;20548;-78
2021/12/26 08:48:24;;;;;;;9.32;5.30;;;-4.50;99.90;;;;;;5032366;28;20051;-79
2021/12/26 08:50:55;;;;;;;12.43;5.53;;;-4.30;99.90;;;;;;5005124;28;20112;-78
2021/12/26 08:53:26;;;;;;;11.15;5.40;;;-4.30;99.90;;;;;;5013154;28;20500;-79
2021/12/26 08:55:52;;;;;;;9.80;5.22;;;-4.40;99.90;;;;;;5009376;28;20067;-76
2021/12/26 08:58:18;;;;;;;8.80;5.25;;;-4.30;99.90;;;;;;5026848;28;20040;-78
2021/12/26 09:00:45;;;;;;;14.15;5.07;;;-4.20;99.90;;;;;;5032993;28;20787;-78
2021/12/26 09:03:11;;;;;;;8.45;4.72;;;-4.10;99.90;;;;;;5008821;28;20054;-79
2021/12/26 09:05:37;;;;;;;10.52;5.30;;;-4.00;99.90;;;;;;5030536;28;20437;-79
2021/12/26 09:08:04;;;;;;;10.18;4.68;;;-3.80;99.90;;;;;;5028188;28;20373;-78
2021/12/26 09:10:30;;;;;;;11.20;5.18;;;-3.80;99.90;;;;;;5027626;28;20521;-79
2021/12/26 09:12:56;;;;;;;11.40;4.90;;;-3.70;99.90;;;;;;5030918;28;20452;-79
2021/12/26 09:15:22;;;;;;;9.02;5.10;;;-3.70;99.90;;;;;;5032986;28;20112;-79
2021/12/26 09:17:49;;;;;;;9.77;5.28;;;-3.50;99.90;;;;;;5013216;28;20407;-79
2021/12/26 09:20:15;;;;;;;12.63;5.25;;;-3.40;99.90;;;;;;5033454;28;20048;-79
2021/12/26 09:22:42;;;;;;;11.00;5.03;;;-3.40;99.90;;;;;;5032024;28;20054;-79
2021/12/26 09:25:10;;;;;;;8.82;4.35;;;-3.40;99.90;;;;;;5029587;28;20100;-79
2021/12/26 09:27:36;;;;;;;9.80;4.65;;;-3.30;99.90;;;;;;5011024;28;20294;-78
2021/12/26 09:30:06;;;;;;;13.63;5.28;;;-3.20;99.90;;;;;;5012971;28;20805;-79
2021/12/26 09:32:32;;;;;;;9.32;5.03;;;-3.10;99.90;;;;;;5032715;28;20105;-79
2021/12/26 09:34:57;;;;;;;10.50;4.70;;;-3.20;99.90;;;;;;5030008;28;20591;-79
2021/12/26 09:37:24;;;;;;;9.20;4.88;;;-3.10;99.90;;;;;;5036945;28;20438;-80
2021/12/26 09:39:49;;;;;;;10.48;4.78;;;-3.00;99.90;;;;;;5012775;28;20043;-80
2021/12/26 09:42:16;;;;;;;8.75;4.75;;;-3.00;99.90;;;;;;5011301;28;20104;-81
2021/12/26 09:44:42;;;;;;;11.50;4.65;;;-2.90;99.90;;;;;;5029547;28;20040;-80
2021/12/26 09:47:09;;;;;;;12.38;4.93;;;-2.80;99.90;;;;;;4960736;28;20079;-79
2021/12/26 09:49:34;;;;;;;8.82;4.88;;;-2.70;99.90;;;;;;4993548;28;20052;-79
2021/12/26 09:52:00;;;;;;;9.25;5.30;;;-2.80;99.90;;;;;;4975087;28;20434;-79
2021/12/26 09:54:26;;;;;;;8.85;4.72;;;-2.70;99.90;;;;;;5025092;28;20824;-81
2021/12/26 09:56:52;;;;;;;9.63;4.97;;;-2.70;99.90;;;;;;5010859;28;20922;-81
2021/12/26 09:59:21;;;;;;;10.82;5.20;;;-2.80;99.90;;;;;;5014563;28;20394;-80
2021/12/26 10:01:53;;;;;;;10.00;5.22;;;-2.90;99.90;;;;;;5030968;28;20072;-82
2021/12/26 10:04:25;;;;;;;8.75;5.22;;;-2.70;99.90;;;;;;5013637;28;20055;-83
2021/12/26 10:06:59;;;;;;;11.80;5.70;;;-2.60;99.90;;;;;;5011211;28;20960;-82
2021/12/26 10:09:25;;;;;;;9.43;5.30;;;-2.60;99.90;;;;;;5033859;28;20051;-81
2021/12/26 10:11:53;;;;;;;10.70;5.53;;;-2.70;99.90;;;;;;5011967;28;20054;-81
2021/12/26 10:14:29;;;;;;;9.32;5.55;;;-2.50;99.90;;;;;;5014063;28;20055;-81
2021/12/26 10:17:01;;;;;;;10.27;5.25;;;-2.50;99.90;;;;;;5014333;28;20051;-82
2021/12/26 10:19:35;;;;;;;11.85;5.63;;;-2.60;99.90;;;;;;4998275;28;20107;-82
2021/12/26 10:22:04;;;;;;;9.35;5.05;;;-2.50;99.90;;;;;;5002799;28;20051;-81
2021/12/26 10:24:36;;;;;;;9.82;5.32;;;-2.50;99.90;;;;;;5008029;28;20109;-81
2021/12/26 10:27:19;;;;;;;9.95;5.80;;;-2.40;99.90;;;;;;5010904;28;20989;-83
2021/12/26 10:29:55;;;;;;;11.55;5.65;;;-2.40;99.90;;;;;;5014490;28;20147;-83
2021/12/26 10:32:22;;;;;;;9.35;5.20;;;-2.40;99.90;;;;;;5012106;28;20766;-81
2021/12/26 10:34:50;;;;;;;9.75;5.70;;;-2.50;99.90;;;;;;5024471;28;20136;-79
2021/12/26 10:37:24;;;;;;;10.48;5.65;;;-2.30;99.90;;;;;;5026158;28;20051;-84
2021/12/26 10:39:55;;;;;;;12.55;6.60;;;-2.20;99.90;;;;;;5002307;28;20052;-80
2021/12/26 10:42:23;;;;;;;11.13;5.78;;;-2.20;99.90;;;;;;5037467;28;20917;-83
2021/12/26 10:44:52;;;;;;;10.45;5.45;;;-2.20;99.90;;;;;;5001468;28;20104;-83
2021/12/26 10:47:27;;;;;;;10.73;5.90;;;-2.20;99.90;;;;;;5036858;28;20402;-83
2021/12/26 10:49:52;;;;;;;9.80;5.72;;;-2.00;99.90;;;;;;5032338;28;20181;-82
2021/12/26 10:52:25;;;;;;;9.57;5.35;;;-2.10;99.90;;;;;;5017456;28;20059;-82
2021/12/26 10:54:59;;;;;;;10.15;5.57;;;-1.90;99.90;;;;;;5030986;28;20441;-83
2021/12/26 10:57:27;;;;;;;9.68;5.57;;;-1.90;99.90;;;;;;5019662;28;20441;-83
2021/12/26 11:00:05;;;;;;;10.65;5.85;;;-1.90;99.90;;;;;;5002412;28;20059;-82
2021/12/26 11:02:32;;;;;;;9.50;5.80;;;-1.80;99.90;;;;;;4994998;28;20052;-84
2021/12/26 11:05:09;;;;;;;11.43;5.68;;;-1.80;99.90;;;;;;5020557;28;20125;-83
2021/12/26 11:07:57;;;;;;;11.82;6.20;;;-1.80;99.90;;;;;;5011625;28;20059;-81
2021/12/26 11:10:52;;;;;;;9.68;5.30;;;-1.80;99.90;;;;;;5001638;28;20051;-83
2021/12/26 11:13:32;;;;;;;10.40;5.78;;;-1.70;99.90;;;;;;5011265;28;20180;-83
2021/12/26 11:16:00;;;;;;;9.55;5.95;;;-1.60;99.90;;;;;;5008301;28;20051;-82
2021/12/26 11:18:28;;;;;;;10.27;5.57;;;-1.50;99.90;;;;;;5011469;28;20047;-83
2021/12/26 11:20:58;;;;;;;10.60;5.88;;;-1.50;99.90;;;;;;5009872;28;20124;-82
2021/12/26 11:23:30;;;;;;;11.45;5.55;;;-1.40;99.90;;;;;;5013222;28;20055;-82
2021/12/26 11:25:58;;;;;;;10.82;6.05;;;-1.40;99.90;;;;;;5011028;28;20043;-83
2021/12/26 11:28:28;;;;;;;10.75;5.60;;;-1.30;99.90;;;;;;5013029;28;20491;-81
2021/12/26 11:30:59;;;;;;;10.65;5.88;;;-1.30;99.90;;;;;;4994831;28;20050;-82
2021/12/26 11:33:27;;;;;;;9.38;5.82;;;-1.10;99.90;;;;;;5014385;28;20532;-83
2021/12/26 11:35:55;;;;;;;9.90;5.68;;;-1.20;99.90;;;;;;5001065;28;20212;-83
2021/12/26 11:38:23;;;;;;;11.60;5.95;;;-1.10;99.90;;;;;;5015835;28;20056;-83
2021/12/26 11:40:51;;;;;;;10.38;6.10;;;-1.20;99.90;;;;;;5015392;28;20062;-81
2021/12/26 11:43:38;;;;;;;10.82;5.75;;;-1.00;99.90;;;;;;5011776;28;20051;-83
2021/12/26 11:46:14;;;;;;;11.60;5.80;;;-1.00;99.90;;;;;;5019686;28;20089;-82
2021/12/26 11:49:06;;;;;;;10.88;6.13;;;-1.00;99.90;;;;;;5020665;28;20055;-83
2021/12/26 11:51:47;;;;;;;9.27;5.72;;;-0.80;99.90;;;;;;5017224;28;20637;-83
2021/12/26 11:54:29;;;;;;;10.18;5.72;;;-0.90;99.90;;;;;;5019260;28;20685;-83
2021/12/26 11:57:28;;;;;;;10.10;6.32;;;-0.80;99.90;;;;;;5020909;28;20059;-83
2021/12/26 12:00:06;;;;;;;10.65;6.22;;;-0.70;99.90;;;;;;5022165;28;21414;-83
2021/12/26 12:02:48;;;;;;;10.75;5.70;;;-0.90;99.90;;;;;;5033142;28;20047;-84
2021/12/26 12:05:18;;;;;;;11.18;6.28;;;-0.80;99.90;;;;;;5005806;28;20482;-83
2021/12/26 12:08:04;;;;;;;10.23;6.22;;;-0.50;99.90;;;;;;5006169;28;20035;-84
2021/12/26 12:10:46;;;;;;;9.98;6.05;;;-0.50;99.90;;;;;;5006883;28;20146;-82
2021/12/26 12:13:14;;;;;;;13.05;6.55;;;-0.30;99.90;;;;;;5020809;28;20059;-82
2021/12/26 12:15:47;;;;;;;13.15;6.00;;;-0.40;99.90;;;;;;4997322;28;20137;-82
2021/12/26 12:18:15;;;;;;;12.43;6.72;;;-0.30;99.90;;;;;;4988005;28;20116;-85
2021/12/26 12:20:42;;;;;;;11.98;6.07;;;-0.50;99.90;;;;;;5018197;28;20035;-83
2021/12/26 12:23:08;;;;;;;9.73;6.40;;;-0.40;99.90;;;;;;4981665;28;20047;-82
2021/12/26 12:25:34;;;;;;;10.32;7.00;;;-0.60;99.90;;;;;;5020540;28;20035;-85
2021/12/26 12:28:10;;;;;;;9.75;6.47;;;-0.50;99.90;;;;;;5001089;28;20046;-83
2021/12/26 12:30:49;;;;;;;11.95;7.00;;;-0.50;99.90;;;;;;5005270;28;20058;-85
2021/12/26 12:33:30;;;;;;;12.30;7.20;;;-0.40;99.90;;;;;;5016562;28;20074;-86
2021/12/26 12:36:08;;;;;;;10.48;6.75;;;-0.30;99.90;;;;;;4997044;28;20123;-87
2021/12/26 12:38:39;;;;;;;11.88;6.80;;;-0.20;99.90;;;;;;5000574;28;20059;-85
2021/12/26 12:41:26;;;;;;;10.95;6.80;;;-0.20;99.90;;;;;;5025131;28;20099;-85
2021/12/26 12:43:52;;;;;;;11.05;6.90;;;-0.20;99.90;;;;;;5022596;28;20058;-86
2021/12/26 12:46:18;;;;;;;11.02;7.03;;;-0.20;99.90;;;;;;5001622;28;20048;-86
2021/12/26 12:49:02;;;;;;;13.43;7.80;;;-0.10;99.90;;;;;;4974423;28;20047;-87
2021/12/26 12:51:29;;;;;;;10.77;6.75;;;0.00;99.90;;;;;;5006335;28;20192;-87